Time;durP1;ratioP1;P1;durP2;ratioP2;P2;SDS_P1;SDS_P2;PMS_P1;PMS_P2;Temp;Humidity;BMP_temperature;BMP_pressure;BME280_temperature;BME280_humidity;BME280_pressure;Samples;Min_cycle;Max_cycle;Signal;HPM_P1;HPM_P2
2024/02/05 00:00:19;;;;;;;0.40;0.40;;;;;;;5.59;100.00;96617.38;1036876;28;20034;-68
2024/02/05 00:00:49;;;;;;;0.00;0.00;;;;;;;5.59;100.00;96617.38;1031899;28;20035;-66
2024/02/05 00:01:20;;;;;;;0.20;0.20;;;;;;;5.61;100.00;96620.59;1032720;28;20026;-68
2024/02/05 00:01:50;;;;;;;0.00;0.00;;;;;;;5.58;100.00;96611.38;1034676;28;20180;-67
2024/02/05 00:02:21;;;;;;;0.75;0.60;;;;;;;5.59;100.00;96614.78;1031582;28;20037;-68
2024/02/05 00:02:52;;;;;;;0.35;0.08;;;;;;;5.53;100.00;96613.00;1032129;28;20030;-67
2024/02/05 00:03:22;;;;;;;7.72;1.55;;;;;;;5.55;100.00;96614.41;1031269;28;20034;-67
2024/02/05 00:03:53;;;;;;;0.80;0.80;;;;;;;5.57;100.00;96616.81;1033040;28;20030;-67
2024/02/05 00:04:23;;;;;;;0.17;0.17;;;;;;;5.61;100.00;96607.56;1036944;28;20034;-66
2024/02/05 00:04:54;;;;;;;0.40;0.10;;;;;;;5.65;100.00;96614.75;1028201;28;20090;-69
2024/02/05 00:05:24;;;;;;;0.17;0.15;;;;;;;5.68;100.00;96611.72;1024580;28;20027;-68
2024/02/05 00:05:54;;;;;;;0.98;0.95;;;;;;;5.66;100.00;96618.13;1028627;28;20035;-67
2024/02/05 00:06:25;;;;;;;0.03;0.03;;;;;;;5.67;100.00;96609.34;1028158;28;20022;-69
2024/02/05 00:06:56;;;;;;;0.08;0.08;;;;;;;5.65;100.00;96593.91;1031501;28;20540;-66
2024/02/05 00:07:26;;;;;;;0.63;0.35;;;;;;;5.62;100.00;96602.16;1032990;28;20018;-67
2024/02/05 00:07:56;;;;;;;0.20;0.20;;;;;;;5.64;100.00;96609.75;1032131;28;20058;-67
2024/02/05 00:08:27;;;;;;;0.00;0.00;;;;;;;5.62;100.00;96606.56;1031530;28;20030;-66
2024/02/05 00:08:57;;;;;;;0.03;0.03;;;;;;;5.59;100.00;96602.56;1030966;28;20569;-66
2024/02/05 00:09:28;;;;;;;0.00;0.00;;;;;;;5.60;100.00;96605.97;1034562;28;20026;-67
2024/02/05 00:09:58;;;;;;;0.00;0.00;;;;;;;5.61;100.00;96604.97;1030903;28;20038;-66
2024/02/05 00:10:29;;;;;;;0.22;0.22;;;;;;;5.59;100.00;96597.34;1030956;28;20026;-68
2024/02/05 00:11:00;;;;;;;0.00;0.00;;;;;;;5.67;100.00;96598.94;1028571;28;20439;-67
2024/02/05 00:11:30;;;;;;;0.25;0.25;;;;;;;5.73;100.00;96605.88;1026909;28;20042;-66
2024/02/05 00:12:01;;;;;;;0.17;0.17;;;;;;;5.71;100.00;96600.09;1025843;28;20703;-69
2024/02/05 00:12:32;;;;;;;0.70;0.52;;;;;;;5.67;100.00;96602.34;1024148;28;20038;-67
2024/02/05 00:13:02;;;;;;;0.47;0.17;;;;;;;5.70;100.00;96597.69;1023124;28;20031;-66
2024/02/05 00:13:33;;;;;;;0.00;0.00;;;;;;;5.69;100.00;96602.09;1028357;28;20033;-67
2024/02/05 00:14:03;;;;;;;2.95;0.40;;;;;;;5.71;100.00;96601.91;1025056;28;20102;-66
2024/02/05 00:14:34;;;;;;;0.05;0.05;;;;;;;5.69;100.00;96612.53;1023225;28;20034;-67
2024/02/05 00:15:05;;;;;;;0.00;0.00;;;;;;;5.67;100.00;96594.50;1031218;28;20030;-67
2024/02/05 00:15:35;;;;;;;1.27;0.75;;;;;;;5.66;100.00;96598.09;1019972;28;20512;-67
2024/02/05 00:16:06;;;;;;;0.20;0.20;;;;;;;5.69;100.00;96607.31;1026912;28;20152;-66
2024/02/05 00:16:36;;;;;;;0.00;0.00;;;;;;;5.70;100.00;96598.50;1019165;29;20480;-67
2024/02/05 00:17:07;;;;;;;0.60;0.35;;;;;;;5.67;100.00;96604.94;1018895;29;20160;-69
2024/02/05 00:17:37;;;;;;;0.32;0.32;;;;;;;5.65;100.00;96600.94;1026253;28;20030;-65
2024/02/05 00:18:08;;;;;;;0.32;0.17;;;;;;;5.65;100.00;96604.34;1027046;28;20026;-67
2024/02/05 00:18:38;;;;;;;0.60;0.50;;;;;;;5.67;100.00;96604.13;1036303;28;20553;-68
2024/02/05 00:19:09;;;;;;;0.17;0.17;;;;;;;5.70;100.00;96603.72;1034009;28;20050;-66
2024/02/05 00:19:39;;;;;;;0.10;0.10;;;;;;;5.67;100.00;96601.53;1030587;28;20018;-67
2024/02/05 00:20:10;;;;;;;7.60;1.55;;;;;;;5.59;100.00;96596.56;1030865;28;20471;-68
2024/02/05 00:20:41;;;;;;;0.28;0.28;;;;;;;5.65;100.00;96600.94;1030976;28;20773;-67
2024/02/05 00:21:11;;;;;;;2.50;0.90;;;;;;;5.63;100.00;96603.75;1034995;28;20413;-66
2024/02/05 00:21:42;;;;;;;0.00;0.00;;;;;;;5.67;100.00;96606.75;1039531;28;20040;-69
2024/02/05 00:22:12;;;;;;;0.05;0.05;;;;;;;5.67;100.00;96604.13;1039305;28;20634;-66
2024/02/05 00:22:43;;;;;;;0.00;0.00;;;;;;;5.66;100.00;96603.31;1036034;28;20071;-67
2024/02/05 00:23:14;;;;;;;2.30;0.85;;;;;;;5.65;100.00;96609.53;1034388;28;20041;-66
2024/02/05 00:23:44;;;;;;;0.93;0.38;;;;;;;5.68;100.00;96605.72;1030948;28;20077;-66
2024/02/05 00:24:15;;;;;;;0.00;0.00;;;;;;;5.68;100.00;96605.72;1029158;28;20026;-67
2024/02/05 00:24:45;;;;;;;0.10;0.10;;;;;;;5.67;100.00;96610.13;1027252;28;20442;-69
2024/02/05 00:25:16;;;;;;;11.88;0.63;;;;;;;5.74;100.00;96606.69;1030833;28;20114;-67
2024/02/05 00:25:46;;;;;;;0.00;0.00;;;;;;;5.74;100.00;96607.50;1035108;28;20092;-66
2024/02/05 00:26:17;;;;;;;0.00;0.00;;;;;;;5.74;100.00;96599.69;1034684;28;20022;-66
2024/02/05 00:26:47;;;;;;;0.10;0.10;;;;;;;5.74;100.00;96604.88;1039090;28;20064;-67
2024/02/05 00:27:18;;;;;;;0.10;0.10;;;;;;;5.75;100.00;96616.91;1032862;28;20022;-67
2024/02/05 00:27:48;;;;;;;0.08;0.08;;;;;;;5.72;100.00;96612.09;1033884;28;20052;-67
2024/02/05 00:28:19;;;;;;;0.40;0.40;;;;;;;5.71;100.00;96602.72;1034904;28;20030;-66
2024/02/05 00:28:49;;;;;;;0.00;0.00;;;;;;;5.73;100.00;96607.69;1030821;28;20034;-68
2024/02/05 00:29:20;;;;;;;0.20;0.20;;;;;;;5.70;100.00;96608.09;1031958;28;20034;-67
2024/02/05 00:29:50;;;;;;;0.65;0.43;;;;;;;5.68;100.00;96606.53;1035050;28;20057;-67
2024/02/05 00:30:20;;;;;;;0.15;0.15;;;;;;;5.64;100.00;96607.16;1026769;28;20027;-68
2024/02/05 00:30:51;;;;;;;0.10;0.10;;;;;;;5.67;100.00;96604.13;1022557;29;20035;-67
2024/02/05 00:31:21;;;;;;;0.10;0.10;;;;;;;5.68;100.00;96611.72;1022980;28;20088;-68
2024/02/05 00:31:52;;;;;;;0.00;0.00;;;;;;;5.66;100.00;96612.94;1027049;28;20031;-66
2024/02/05 00:32:23;;;;;;;7.95;0.98;;;;;;;5.65;100.00;96612.16;1034832;28;20101;-68
2024/02/05 00:32:53;;;;;;;8.30;1.05;;;;;;;5.73;100.00;96612.91;1035162;28;20048;-67
2024/02/05 00:33:24;;;;;;;0.30;0.30;;;;;;;5.72;100.00;96603.50;1039098;28;20056;-67
2024/02/05 00:33:55;;;;;;;0.00;0.00;;;;;;;5.70;100.00;96608.94;1034626;28;20022;-66
2024/02/05 00:34:25;;;;;;;0.20;0.20;;;;;;;5.71;100.00;96607.13;1030845;28;20042;-66
2024/02/05 00:34:57;;;;;;;0.10;0.10;;;;;;;5.68;100.00;96616.94;1026449;28;20034;-67
2024/02/05 00:35:27;;;;;;;0.25;0.25;;;;;;;5.61;100.00;96610.19;1027655;28;20023;-66
2024/02/05 00:35:57;;;;;;;0.80;0.25;;;;;;;5.65;100.00;96621.75;1031132;28;20482;-67
2024/02/05 00:36:28;;;;;;;0.10;0.10;;;;;;;5.70;100.00;96608.94;1030696;28;20022;-67
2024/02/05 00:36:58;;;;;;;0.90;0.90;;;;;;;5.71;100.00;96618.31;1026901;28;20030;-66
2024/02/05 00:37:29;;;;;;;0.00;0.00;;;;;;;5.68;100.00;96610.94;1026791;28;20038;-67
2024/02/05 00:37:59;;;;;;;0.00;0.00;;;;;;;5.66;100.00;96612.94;1032299;28;20100;-67
2024/02/05 00:38:30;;;;;;;9.32;1.17;;;;;;;5.70;100.00;96613.31;1030791;28;20033;-66
2024/02/05 00:39:00;;;;;;;0.20;0.20;;;;;;;5.70;100.00;96608.94;1029970;28;20022;-66
2024/02/05 00:39:31;;;;;;;1.75;1.02;;;;;;;5.67;100.00;96610.13;1022499;29;20028;-67
2024/02/05 00:40:05;;;;;;;0.15;0.15;;;;;;;5.60;100.00;96603.34;1024372;28;20578;-66
2024/02/05 00:40:36;;;;;;;0.00;0.00;;;;;;;5.62;100.00;96606.56;1027535;28;20019;-69
2024/02/05 00:41:07;;;;;;;0.00;0.00;;;;;;;5.61;100.00;96610.19;1033447;28;20022;-66
2024/02/05 00:41:38;;;;;;;0.00;0.00;;;;;;;5.58;100.00;96611.38;1034597;28;20638;-68
2024/02/05 00:42:08;;;;;;;1.40;0.80;;;;;;;5.56;100.00;96612.59;1031810;28;20077;-68
2024/02/05 00:42:39;;;;;;;0.80;0.75;;;;;;;5.56;100.00;96610.00;1030885;28;20047;-67
2024/02/05 00:43:09;;;;;;;0.05;0.05;;;;;;;5.58;100.00;96613.19;1027045;28;20483;-66
2024/02/05 00:43:40;;;;;;;0.20;0.20;;;;;;;5.64;100.00;96604.56;1022976;28;20019;-69
2024/02/05 00:44:10;;;;;;;0.10;0.10;;;;;;;5.68;100.00;96610.94;1026891;28;20025;-68
2024/02/05 00:44:41;;;;;;;0.00;0.00;;;;;;;5.67;100.00;96617.16;1027033;28;20023;-67
2024/02/05 00:45:11;;;;;;;0.00;0.00;;;;;;;5.68;100.00;96605.72;1031197;28;20026;-69
2024/02/05 00:45:42;;;;;;;0.10;0.10;;;;;;;5.68;100.00;96609.13;1030826;28;20029;-67
2024/02/05 00:46:26;;;;;;;0.00;0.00;;;;;;;5.68;100.00;96618.75;1023422;28;20011;-66
2024/02/05 00:46:57;;;;;;;0.75;0.60;;;;;;;5.74;100.00;96614.50;1026899;28;20431;-67
2024/02/05 00:47:27;;;;;;;1.30;1.20;;;;;;;5.76;100.00;96617.69;1028782;28;20034;-66
2024/02/05 00:47:57;;;;;;;0.22;0.17;;;;;;;5.72;100.00;96617.31;1026703;28;20472;-69
2024/02/05 00:48:29;;;;;;;0.03;0.03;;;;;;;5.75;100.00;96606.47;1027490;28;20126;-66
2024/02/05 00:48:59;;;;;;;0.98;0.75;;;;;;;5.75;100.00;96609.09;1031081;28;20114;-67
2024/02/05 00:49:30;;;;;;;0.10;0.10;;;;;;;5.72;100.00;96604.28;1030558;28;20803;-67
2024/02/05 00:50:00;;;;;;;0.00;0.00;;;;;;;5.74;100.00;96607.50;1038552;28;20021;-67
2024/02/05 00:50:31;;;;;;;0.00;0.00;;;;;;;5.78;100.00;96600.84;1034994;28;20022;-68
2024/02/05 00:51:01;;;;;;;0.00;0.00;;;;;;;5.82;100.00;96602.03;1034874;28;20385;-66
2024/02/05 00:51:32;;;;;;;0.00;0.00;;;;;;;5.80;100.00;96608.44;1034805;28;20025;-68
2024/02/05 00:52:02;;;;;;;0.08;0.08;;;;;;;5.83;100.00;96598.41;1031206;28;20035;-66
2024/02/05 00:52:33;;;;;;;3.20;0.20;;;;;;;5.83;100.00;96597.59;1030864;28;20027;-67
2024/02/05 00:53:05;;;;;;;1.48;1.38;;;;;;;5.87;100.00;96602.19;1030903;28;20026;-67
2024/02/05 00:53:35;;;;;;;0.00;0.00;;;;;;;5.83;100.00;96595.78;1031236;28;20521;-65
2024/02/05 00:54:06;;;;;;;0.00;0.00;;;;;;;5.82;100.00;96602.03;1035070;28;20026;-67
2024/02/05 00:54:36;;;;;;;0.00;0.00;;;;;;;5.90;100.00;96603.56;1035300;28;20772;-66
2024/02/05 00:55:07;;;;;;;0.10;0.10;;;;;;;5.86;100.00;96603.19;1034879;28;20041;-66
2024/02/05 00:55:37;;;;;;;0.73;0.73;;;;;;;5.94;100.00;96601.41;1033722;28;20026;-67
2024/02/05 00:56:08;;;;;;;3.95;0.73;;;;;;;5.98;100.00;96605.97;1036853;28;20024;-68
2024/02/05 00:56:38;;;;;;;0.30;0.30;;;;;;;5.98;100.00;96600.75;1035671;28;20030;-68
2024/02/05 00:57:08;;;;;;;0.00;0.00;;;;;;;6.02;100.00;96606.31;1035949;28;20038;-68
2024/02/05 00:57:39;;;;;;;0.10;0.10;;;;;;;6.04;100.00;96605.13;1035641;28;20030;-67
2024/02/05 00:58:09;;;;;;;0.45;0.45;;;;;;;6.01;100.00;96595.13;1035324;28;20050;-67
2024/02/05 00:58:40;;;;;;;0.15;0.10;;;;;;;6.03;100.00;96602.72;1034943;28;20030;-69
2024/02/05 00:59:10;;;;;;;0.00;0.00;;;;;;;6.03;100.00;96602.72;1033058;28;20058;-67
2024/02/05 00:59:41;;;;;;;0.00;0.00;;;;;;;5.99;100.00;96607.53;1034851;28;20410;-69
2024/02/05 01:00:12;;;;;;;0.10;0.10;;;;;;;6.00;100.00;96613.53;1034266;28;20030;-69
2024/02/05 01:00:42;;;;;;;0.52;0.20;;;;;;;6.01;100.00;96609.94;1038515;28;20068;-70
2024/02/05 01:01:13;;;;;;;0.00;0.00;;;;;;;6.01;100.00;96604.75;1042474;28;20037;-68
2024/02/05 01:01:45;;;;;;;3.40;0.10;;;;;;;6.05;100.00;96611.13;1036932;28;20037;-67
2024/02/05 01:02:15;;;;;;;0.45;0.30;;;;;;;6.06;100.00;96612.72;1034793;28;20600;-66
2024/02/05 01:02:46;;;;;;;1.17;0.52;;;;;;;6.11;100.00;96599.84;1035067;28;20030;-67
2024/02/05 01:03:17;;;;;;;0.20;0.20;;;;;;;6.16;100.00;96610.41;1030932;28;20034;-67
2024/02/05 01:03:47;;;;;;;0.00;0.00;;;;;;;6.11;100.00;96613.69;1034785;28;20037;-68
2024/02/05 01:04:19;;;;;;;0.00;0.00;;;;;;;6.16;100.00;96607.03;1035221;28;20033;-67
2024/02/05 01:04:49;;;;;;;0.00;0.00;;;;;;;6.22;100.00;96614.78;1035282;28;20029;-67
2024/02/05 01:05:20;;;;;;;0.00;0.00;;;;;;;6.30;100.00;96613.72;1031054;28;20033;-67
2024/02/05 01:05:50;;;;;;;0.10;0.10;;;;;;;6.29;100.00;96610.31;1030767;28;20038;-67
2024/02/05 01:06:21;;;;;;;0.20;0.20;;;;;;;6.32;100.00;96616.91;1030813;28;20030;-67
2024/02/05 01:06:53;;;;;;;0.00;0.00;;;;;;;6.33;100.00;96614.09;1027091;28;20529;-67
2024/02/05 01:07:23;;;;;;;0.00;0.00;;;;;;;6.36;100.00;96613.66;1034916;28;20181;-66
2024/02/05 01:07:54;;;;;;;0.00;0.00;;;;;;;6.42;100.00;96611.22;1034867;28;20025;-70
2024/02/05 01:08:24;;;;;;;6.57;0.22;;;;;;;6.44;100.00;96615.22;1035055;28;20452;-67
2024/02/05 01:08:55;;;;;;;0.08;0.08;;;;;;;6.47;100.00;96609.56;1038879;28;20026;-66
2024/02/05 01:09:25;;;;;;;0.20;0.20;;;;;;;6.43;100.00;96603.19;1038661;28;20029;-68
2024/02/05 01:09:56;;;;;;;0.80;0.80;;;;;;;6.45;100.00;96611.59;1034892;28;20026;-67
2024/02/05 01:10:26;;;;;;;0.40;0.40;;;;;;;6.47;100.00;96604.38;1027026;28;20031;-65
2024/02/05 01:10:57;;;;;;;0.17;0.17;;;;;;;6.47;100.00;96611.34;1026856;28;20023;-67
2024/02/05 01:11:27;;;;;;;0.85;0.85;;;;;;;6.47;100.00;96612.19;1022782;28;20031;-67
2024/02/05 01:11:58;;;;;;;0.38;0.15;;;;;;;6.48;100.00;96608.56;1022979;28;20023;-67
2024/02/05 01:12:28;;;;;;;1.88;0.35;;;;;;;6.47;100.00;96614.78;1022996;29;20027;-66
2024/02/05 01:12:59;;;;;;;0.88;0.88;;;;;;;6.50;100.00;96618.75;1022909;28;20395;-67
2024/02/05 01:13:29;;;;;;;0.05;0.05;;;;;;;6.53;100.00;96607.91;1027628;28;20050;-66
2024/02/05 01:14:00;;;;;;;0.10;0.10;;;;;;;6.58;100.00;96610.69;1030899;28;20049;-67
2024/02/05 01:14:30;;;;;;;0.00;0.00;;;;;;;6.57;100.00;96612.50;1034920;28;20026;-66
2024/02/05 01:15:01;;;;;;;0.30;0.30;;;;;;;6.58;100.00;96605.47;1034971;28;20473;-67
2024/02/05 01:15:32;;;;;;;0.00;0.00;;;;;;;6.56;100.00;96610.09;1034831;28;20029;-67
2024/02/05 01:16:04;;;;;;;0.00;0.00;;;;;;;6.54;100.00;96604.31;1034778;28;20025;-66
2024/02/05 01:16:34;;;;;;;0.00;0.00;;;;;;;6.58;100.00;96608.88;1030949;28;20027;-69
2024/02/05 01:17:05;;;;;;;0.82;0.80;;;;;;;6.57;100.00;96609.06;1030512;28;20026;-66
2024/02/05 01:17:36;;;;;;;0.85;0.75;;;;;;;6.63;100.00;96613.41;1027454;28;20459;-67
2024/02/05 01:18:06;;;;;;;0.40;0.40;;;;;;;6.63;100.00;96608.19;1030879;28;20094;-68
2024/02/05 01:18:37;;;;;;;0.35;0.35;;;;;;;6.65;100.00;96616.63;1034834;28;20617;-68
2024/02/05 01:19:07;;;;;;;0.25;0.25;;;;;;;6.63;100.00;96608.19;1034612;28;20477;-68
2024/02/05 01:19:38;;;;;;;0.00;0.00;;;;;;;6.65;100.00;96608.78;1039251;28;20029;-66
2024/02/05 01:20:10;;;;;;;0.43;0.43;;;;;;;6.64;100.00;96607.22;1039145;28;20029;-66
2024/02/05 01:20:41;;;;;;;0.95;0.90;;;;;;;6.63;100.00;96613.41;1034923;28;20098;-66
2024/02/05 01:21:11;;;;;;;0.00;0.00;;;;;;;6.53;100.00;96597.47;1034670;28;20617;-68
2024/02/05 01:21:43;;;;;;;0.00;0.00;;;;;;;6.65;100.00;96616.63;1030923;28;20229;-67
2024/02/05 01:22:13;;;;;;;0.10;0.10;;;;;;;6.65;100.00;96611.41;1027061;28;20713;-68
2024/02/05 01:22:45;;;;;;;0.00;0.00;;;;;;;6.64;100.00;96609.00;1030765;28;20034;-65
2024/02/05 01:23:15;;;;;;;0.15;0.15;;;;;;;6.68;100.00;96613.59;1030851;28;20422;-66
2024/02/05 01:23:46;;;;;;;0.00;0.00;;;;;;;6.73;100.00;96612.94;1029538;28;20034;-68
2024/02/05 01:24:17;;;;;;;0.20;0.10;;;;;;;6.72;100.00;96606.91;1031141;28;20026;-69
2024/02/05 01:24:47;;;;;;;0.00;0.00;;;;;;;6.72;100.00;96606.91;1035261;28;20034;-67
2024/02/05 01:25:18;;;;;;;0.00;0.00;;;;;;;6.70;100.00;96611.53;1034991;28;20371;-69
2024/02/05 01:25:49;;;;;;;0.00;0.00;;;;;;;6.73;100.00;96607.72;1030982;28;20594;-67
2024/02/05 01:26:20;;;;;;;0.00;0.00;;;;;;;6.70;100.00;96608.94;1030886;28;20052;-66
2024/02/05 01:26:51;;;;;;;0.08;0.08;;;;;;;6.71;100.00;96610.53;1030849;28;20026;-67
2024/02/05 01:27:21;;;;;;;0.25;0.13;;;;;;;6.69;100.00;96607.34;1028406;28;20030;-66
2024/02/05 01:27:52;;;;;;;0.55;0.55;;;;;;;6.69;100.00;96609.94;1030711;28;20030;-67
2024/02/05 01:28:22;;;;;;;0.28;0.13;;;;;;;6.67;100.00;96614.56;1026639;28;20027;-67
2024/02/05 01:28:53;;;;;;;0.52;0.38;;;;;;;6.67;100.00;96606.75;1022875;28;20055;-69
2024/02/05 01:29:24;;;;;;;0.00;0.00;;;;;;;6.67;100.00;96609.38;1022240;28;20050;-67
2024/02/05 01:29:55;;;;;;;0.45;0.20;;;;;;;6.69;100.00;96606.56;1027159;28;20043;-68
2024/02/05 01:30:27;;;;;;;0.52;0.20;;;;;;;6.71;100.00;96605.34;1030714;28;20026;-66
2024/02/05 01:30:57;;;;;;;0.20;0.20;;;;;;;6.71;100.00;96607.16;1031991;28;20061;-67
2024/02/05 01:31:27;;;;;;;0.52;0.52;;;;;;;6.69;100.00;96601.34;1031450;28;20057;-67
2024/02/05 01:31:58;;;;;;;0.00;0.00;;;;;;;6.70;100.00;96608.94;1027510;28;20062;-66
2024/02/05 01:32:28;;;;;;;0.00;0.00;;;;;;;6.69;100.00;96609.94;1026344;28;20037;-67
2024/02/05 01:32:59;;;;;;;0.00;0.00;;;;;;;6.68;100.00;96603.16;1027706;28;20023;-67
2024/02/05 01:33:29;;;;;;;0.25;0.25;;;;;;;6.69;100.00;96604.75;1027441;28;20030;-67
2024/02/05 01:34:02;;;;;;;0.15;0.15;;;;;;;6.68;100.00;96610.19;1030043;28;20454;-67
2024/02/05 01:34:33;;;;;;;0.00;0.00;;;;;;;6.68;100.00;96605.75;1027569;28;20094;-66
2024/02/05 01:35:04;;;;;;;0.00;0.00;;;;;;;6.69;100.00;96606.56;1024041;28;20484;-67
2024/02/05 01:35:34;;;;;;;0.77;0.45;;;;;;;6.68;100.00;96610.97;1028244;28;20387;-66
2024/02/05 01:36:05;;;;;;;0.98;0.88;;;;;;;6.70;100.00;96613.34;1027503;28;20038;-69
2024/02/05 01:36:36;;;;;;;0.98;0.77;;;;;;;6.69;100.00;96607.34;1031966;28;20029;-68
2024/02/05 01:37:06;;;;;;;0.00;0.00;;;;;;;6.68;100.00;96615.41;1035440;28;20045;-65
2024/02/05 01:37:37;;;;;;;0.55;0.55;;;;;;;6.68;100.00;96603.16;1035532;28;20436;-66
2024/02/05 01:38:07;;;;;;;0.10;0.08;;;;;;;6.68;100.00;96600.53;1040160;28;20029;-66
2024/02/05 01:38:38;;;;;;;0.00;0.00;;;;;;;6.66;100.00;96613.00;1035685;28;20496;-67
2024/02/05 01:39:08;;;;;;;0.00;0.00;;;;;;;6.66;100.00;96618.22;1034815;28;20429;-68
2024/02/05 01:39:39;;;;;;;0.00;0.00;;;;;;;6.66;100.00;96606.97;1035763;28;20048;-67
2024/02/05 01:40:09;;;;;;;0.00;0.00;;;;;;;6.67;100.00;96613.78;1031580;28;20513;-67
2024/02/05 01:40:40;;;;;;;0.00;0.00;;;;;;;6.68;100.00;96597.94;1031037;28;20073;-68
2024/02/05 01:41:10;;;;;;;0.00;0.00;;;;;;;6.64;100.00;96615.03;1027578;28;20442;-66
2024/02/05 01:41:41;;;;;;;0.00;0.00;;;;;;;6.61;100.00;96610.25;1023786;28;20039;-65
2024/02/05 01:42:12;;;;;;;0.10;0.10;;;;;;;6.58;100.00;96611.47;1027623;28;20023;-68
2024/02/05 01:42:42;;;;;;;0.25;0.25;;;;;;;6.58;100.00;96616.69;1030592;28;20043;-67
2024/02/05 01:43:13;;;;;;;0.10;0.10;;;;;;;6.63;100.00;96618.63;1035467;28;20022;-67
2024/02/05 01:43:43;;;;;;;0.03;0.03;;;;;;;6.61;100.00;96610.25;1031599;28;20022;-67
2024/02/05 01:44:14;;;;;;;1.15;0.45;;;;;;;6.63;100.00;96620.44;1023383;29;20106;-67
2024/02/05 01:44:44;;;;;;;0.00;0.00;;;;;;;6.63;100.00;96623.06;1023610;29;20872;-67
2024/02/05 01:45:15;;;;;;;0.35;0.35;;;;;;;6.61;100.00;96613.66;1023612;28;20027;-67
2024/02/05 01:45:45;;;;;;;0.17;0.17;;;;;;;6.63;100.00;96608.19;1027532;28;20019;-67
2024/02/05 01:46:21;;;;;;;0.00;0.00;;;;;;;6.61;100.00;96621.47;1027656;28;20031;-65
2024/02/05 01:46:51;;;;;;;0.50;0.50;;;;;;;6.60;100.00;96613.84;1028198;28;20493;-68
2024/02/05 01:47:22;;;;;;;1.35;0.10;;;;;;;6.59;100.00;96617.47;1023467;29;20042;-67
2024/02/05 01:47:53;;;;;;;0.00;0.00;;;;;;;6.62;100.00;96619.66;1021144;28;20038;-70
2024/02/05 01:48:26;;;;;;;0.05;0.05;;;;;;;6.63;100.00;96615.22;1027477;28;20424;-67
2024/02/05 01:48:57;;;;;;;0.20;0.13;;;;;;;6.62;100.00;96622.25;1024949;28;20507;-66
2024/02/05 01:49:28;;;;;;;0.03;0.03;;;;;;;6.65;100.00;96626.25;1023459;28;20041;-68
2024/02/05 01:49:58;;;;;;;0.50;0.38;;;;;;;6.63;100.00;96612.63;1023311;28;20533;-67
2024/02/05 01:50:29;;;;;;;0.08;0.08;;;;;;;6.61;100.00;96612.84;1023788;29;20298;-66
2024/02/05 01:51:00;;;;;;;0.60;0.60;;;;;;;6.63;100.00;96612.63;1027625;28;20041;-67
2024/02/05 01:51:32;;;;;;;0.00;0.00;;;;;;;6.64;100.00;96614.22;1031363;28;20105;-66
2024/02/05 01:52:03;;;;;;;0.00;0.00;;;;;;;6.64;100.00;96612.44;1032190;28;20019;-67
2024/02/05 01:52:35;;;;;;;0.10;0.10;;;;;;;6.65;100.00;96619.22;1035503;28;20050;-66
2024/02/05 01:53:06;;;;;;;0.43;0.43;;;;;;;6.67;100.00;96611.19;1027470;28;20023;-67
2024/02/05 01:53:37;;;;;;;0.00;0.00;;;;;;;6.65;100.00;96614.00;1019406;29;20440;-68
2024/02/05 01:54:08;;;;;;;0.35;0.35;;;;;;;6.64;100.00;96620.25;1023291;29;20023;-68
2024/02/05 01:54:38;;;;;;;0.43;0.30;;;;;;;6.64;100.00;96620.25;1023676;28;20357;-67
2024/02/05 01:55:11;;;;;;;0.15;0.15;;;;;;;6.61;100.00;96623.28;1027188;28;20019;-66
2024/02/05 01:55:43;;;;;;;0.35;0.30;;;;;;;6.60;100.00;96619.06;1020094;29;20038;-67
2024/02/05 01:56:13;;;;;;;0.00;0.00;;;;;;;6.64;100.00;96616.81;1015525;29;20542;-68
2024/02/05 01:56:43;;;;;;;0.10;0.05;;;;;;;6.63;100.00;96612.63;1017912;29;20035;-67
2024/02/05 01:57:14;;;;;;;0.28;0.22;;;;;;;6.64;100.00;96611.59;1019404;29;20031;-67
2024/02/05 01:57:44;;;;;;;0.10;0.10;;;;;;;6.62;100.00;96614.44;1019707;28;20506;-68
2024/02/05 01:58:15;;;;;;;0.28;0.28;;;;;;;6.63;100.00;96612.63;1023200;29;20066;-66
2024/02/05 01:58:45;;;;;;;0.28;0.28;;;;;;;6.54;100.00;96610.31;1015859;28;20035;-67
2024/02/05 01:59:16;;;;;;;0.10;0.10;;;;;;;6.60;100.00;96611.25;1022029;29;20023;-67
2024/02/05 01:59:46;;;;;;;0.00;0.00;;;;;;;6.58;100.00;96611.47;1022261;29;20042;-68
2024/02/05 02:00:17;;;;;;;0.20;0.20;;;;;;;6.58;100.00;96610.69;1015147;29;20655;-65
2024/02/05 02:00:48;;;;;;;0.10;0.10;;;;;;;6.60;100.00;96611.25;1011502;29;20100;-67
2024/02/05 02:01:19;;;;;;;0.10;0.10;;;;;;;6.58;100.00;96615.91;1019157;29;20583;-67
2024/02/05 02:01:50;;;;;;;0.10;0.05;;;;;;;6.55;100.00;96601.47;1020486;28;20019;-67
2024/02/05 02:02:20;;;;;;;0.40;0.40;;;;;;;6.59;100.00;96612.25;1023381;28;20031;-67
2024/02/05 02:02:51;;;;;;;1.52;1.20;;;;;;;6.59;100.00;96617.47;1023448;29;20031;-68
2024/02/05 02:03:22;;;;;;;0.00;0.00;;;;;;;6.57;100.00;96611.66;1023219;28;20415;-67
2024/02/05 02:03:52;;;;;;;0.00;0.00;;;;;;;6.59;100.00;96612.25;1019583;29;20186;-67
2024/02/05 02:04:22;;;;;;;0.00;0.00;;;;;;;6.59;100.00;96618.28;1023322;28;20046;-66
2024/02/05 02:04:56;;;;;;;0.00;0.00;;;;;;;6.60;100.00;96611.25;1023348;29;20031;-67
2024/02/05 02:05:27;;;;;;;0.00;0.00;;;;;;;6.59;100.00;96622.69;1024556;28;20119;-67
2024/02/05 02:05:58;;;;;;;0.00;0.00;;;;;;;6.58;100.00;96613.28;1019374;29;20651;-69
2024/02/05 02:06:28;;;;;;;0.10;0.10;;;;;;;6.60;100.00;96612.03;1019943;29;20102;-66
2024/02/05 02:06:59;;;;;;;0.10;0.10;;;;;;;6.58;100.00;96615.91;1023488;28;20035;-66
2024/02/05 02:07:29;;;;;;;0.65;0.65;;;;;;;6.58;100.00;96616.69;1027666;28;20074;-69
2024/02/05 02:08:00;;;;;;;0.13;0.13;;;;;;;6.48;100.00;96598.13;1035322;28;20084;-69
2024/02/05 02:08:31;;;;;;;0.13;0.13;;;;;;;6.53;100.00;96619.13;1031099;28;20014;-68
2024/02/05 02:09:02;;;;;;;0.00;0.00;;;;;;;6.55;100.00;96611.91;1027077;28;20137;-69
2024/02/05 02:09:32;;;;;;;0.00;0.00;;;;;;;6.52;100.00;96611.53;1018791;29;20357;-66
2024/02/05 02:10:04;;;;;;;0.03;0.03;;;;;;;6.57;100.00;96619.50;1019359;29;20035;-67
2024/02/05 02:10:34;;;;;;;0.00;0.00;;;;;;;6.54;100.00;96619.94;1023836;28;20110;-67
2024/02/05 02:11:05;;;;;;;0.70;0.43;;;;;;;6.55;100.00;96624.13;1027546;28;20031;-66
2024/02/05 02:11:35;;;;;;;0.40;0.40;;;;;;;6.53;100.00;96618.34;1027456;28;20502;-66
2024/02/05 02:12:06;;;;;;;0.00;0.00;;;;;;;6.54;100.00;96614.72;1026497;28;20031;-68
2024/02/05 02:12:37;;;;;;;0.15;0.15;;;;;;;6.54;100.00;96612.91;1023183;28;20094;-67
2024/02/05 02:13:08;;;;;;;0.00;0.00;;;;;;;6.55;100.00;96608.50;1023152;29;20415;-68
2024/02/05 02:13:38;;;;;;;0.00;0.00;;;;;;;6.54;100.00;96612.91;1023110;28;20027;-66
2024/02/05 02:14:09;;;;;;;0.00;0.00;;;;;;;6.57;100.00;96604.66;1023489;28;20562;-67
2024/02/05 02:14:39;;;;;;;0.00;0.00;;;;;;;6.57;100.00;96609.06;1027495;28;20031;-66
2024/02/05 02:15:09;;;;;;;0.08;0.08;;;;;;;6.60;100.00;96603.41;1035401;28;20026;-67
2024/02/05 02:15:40;;;;;;;0.00;0.00;;;;;;;6.56;100.00;96605.66;1027230;28;20078;-67
2024/02/05 02:16:13;;;;;;;0.00;0.00;;;;;;;6.58;100.00;96602.84;1027515;28;20030;-67
2024/02/05 02:16:44;;;;;;;0.25;0.25;;;;;;;6.59;100.00;96605.22;1023167;29;20388;-68
2024/02/05 02:17:15;;;;;;;0.20;0.20;;;;;;;6.59;100.00;96612.25;1030603;28;20034;-66
2024/02/05 02:17:45;;;;;;;0.10;0.10;;;;;;;6.60;100.00;96608.63;1027511;28;20094;-68
2024/02/05 02:18:17;;;;;;;0.15;0.10;;;;;;;6.60;100.00;96608.63;1027184;28;20089;-68
2024/02/05 02:18:48;;;;;;;0.20;0.20;;;;;;;6.57;100.00;96601.25;1023171;29;20132;-68
2024/02/05 02:19:30;;;;;;;0.00;0.00;;;;;;;6.55;100.00;96605.88;1018866;29;20621;-66
2024/02/05 02:20:00;;;;;;;0.10;0.10;;;;;;;6.61;100.00;96605.03;1018931;29;20016;-67
2024/02/05 02:20:31;;;;;;;0.00;0.00;;;;;;;6.64;100.00;96603.78;1025174;28;20377;-66
2024/02/05 02:21:01;;;;;;;0.00;0.00;;;;;;;6.61;100.00;96603.22;1027279;28;20027;-66
2024/02/05 02:21:33;;;;;;;0.00;0.00;;;;;;;6.64;100.00;96606.38;1019553;29;20035;-67
2024/02/05 02:22:04;;;;;;;1.90;0.98;;;;;;;6.62;100.00;96601.41;1015963;29;20650;-66
2024/02/05 02:22:48;;;;;;;3.03;0.30;;;;;;;6.64;100.00;96615.03;1022214;29;20529;-66
2024/02/05 02:23:24;;;;;;;0.17;0.17;;;;;;;6.66;100.00;96613.00;1023808;29;20027;-67
2024/02/05 02:23:55;;;;;;;0.38;0.20;;;;;;;6.59;100.00;96605.22;1022468;28;20042;-66
2024/02/05 02:24:25;;;;;;;0.15;0.15;;;;;;;6.59;100.00;96607.03;1022203;29;20043;-67
2024/02/05 02:24:56;;;;;;;0.28;0.28;;;;;;;6.60;100.00;96613.84;1012472;29;20035;-68
2024/02/05 02:25:26;;;;;;;0.00;0.00;;;;;;;6.60;100.00;96611.25;1020174;29;20015;-67